Logo AVAMET
Benvolgut visitant, si us plau, ingressa Recuperar contrasenya

Oriola R. de Bonanza

Dades diàries. Acumulats / Últims 30 dies disponibles

Data Temperatura (°C) Humitat rel. (%) Pressió rel. (hPa) Vent (km/h) Precipitació
Mínima Mitjana Màxima Amplitud
tèrmica
Mínima Mitjana Màxima Mínima Mitjana Màxima Predom. Mitjana Ràfega
màxima
Total
(mm)
Índex-n
Mínima Mitjana Màxima Mínima Mitjana Màxima n
0 a 1
P0 max
mm 5'
Dades mensuals acumulades fins l'últim dia disponible
07/2019 20,4 22,4 26,4 27,7 29,6 33,5 39,8 19,4 21 63 89 1.008 1.014 1.018   5,6 40,0 0,2
Dades anuals acumulades fins l'últim dia disponible
2019 4,1 13,3 26,4 18,8 13,6 24,9 39,8 35,7 17 62 94 995 1.017 1.035   4,8 69,0 159,0
Últims 30 dies disponibles
20-07-2019 21,8     27,7     32,4 10,6 45 62 84 1.014 1.015 1.018 ESE 6,2 40,0 0,0
19-07-2019 21,1     26,8     32,3 11,2 34 66 87 1.014 1.015 1.017 SSE 5,0 32,0 0,0
18-07-2019 21,1     27,0     32,5 11,4 38 64 87 1.014 1.015 1.016 SE 4,0 26,0 0,0
17-07-2019 21,4     26,7     31,1 9,7 44 64 82 1.012 1.014 1.016 SE 5,5 31,0 0,0
16-07-2019 25,0     27,3     30,7 5,7 53 71 87 1.014 1.015 1.016 E 7,6 35,0 0,0
15-07-2019 22,9     28,7     39,7 16,8 26 68 88 1.008 1.011 1.014 ESE 4,8 34,0 0,0
14-07-2019 23,9     29,7     37,6 13,7 25 55 86 1.009 1.011 1.013 SSE 8,1 39,0 0,0
13-07-2019 25,5     29,3     34,0 8,5 23 51 80 1.011 1.013 1.015 SE 6,4 26,0 0,0
12-07-2019 21,5     28,1     36,4 14,9 30 54 77 1.014 1.015 1.016 SSE 4,2 27,0 0,0
11-07-2019 20,4     27,3     34,2 13,8 32 61 87 1.014 1.015 1.016 SSE 4,7 32,0 0,0
10-07-2019 20,7     26,6     31,4 10,7 45 64 85 1.014 1.015 1.016 SE 5,8 31,0 0,0
09-07-2019 21,2     28,3     35,6 14,4 21 46 87 1.010 1.012 1.014 SSO 7,2 34,0 0,0
08-07-2019 23,1     26,3     29,6 6,5 38 71 82 1.010 1.011 1.013 SE 5,5 27,0 0,2
07-07-2019 26,4     31,4     39,8 13,4 23 53 76 1.008 1.012 1.015 SE 4,2 29,0 0,0
06-07-2019 23,4     29,0     36,1 12,7 34 67 86 1.011 1.014 1.017 SE 4,2 35,0 0,0
05-07-2019 22,3     27,4     32,4 10,1 52 70 88 1.014 1.016 1.018 SE 4,9 29,0 0,0
04-07-2019 20,9     26,3     30,8 9,9 45 66 83 1.014 1.016 1.018 SE 6,3 31,0 0,0
03-07-2019 20,7     26,2     31,2 10,5 37 66 89 1.013 1.014 1.015 ESE 5,9 32,0 0,0
02-07-2019 23,6     25,9     29,7 6,1 56 74 86 1.014 1.015 1.016 ESE 6,4 35,0 0,0
01-07-2019 21,8     27,0     31,8 10,0 52 65 80 1.014 1.015 1.017 ESE 5,3 29,0 0,0
30-06-2019 20,2     28,4     35,7 15,5 22 47 73 1.015 1.016 1.017 SE 4,5 35,0 0,0
29-06-2019 21,0     29,0     35,9 14,9 27 48 73 1.014 1.015 1.017 SE 4,3 31,0 0,0
28-06-2019 21,0     28,1     34,6 13,6 31 53 74 1.015 1.017 1.019 SSE 4,0 29,0 0,0
27-06-2019 22,7     28,0     33,2 10,5 40 59 82 1.016 1.017 1.018 SE 8,5 45,0 0,0
26-06-2019 21,3     26,4     32,6 11,3 51 71 85 1.016 1.017 1.018 SSE 4,5 32,0 0,0
25-06-2019 19,7     25,0     30,8 11,1 53 72 88 1.014 1.016 1.018 SE 5,8 29,0 0,0
24-06-2019 18,9     25,0     29,9 11,0 46 60 82 1.012 1.014 1.016 SSE 4,7 32,0 0,0
23-06-2019 17,9     23,8     28,9 11,0 44 68 89 1.013 1.014 1.016 ESE 5,7 32,0 0,0
22-06-2019 19,7     24,1     28,1 8,4 50 69 84 1.014 1.016 1.017 SSE 4,7 31,0 0,0
21-06-2019 19,9     24,0     29,6 9,7 55 72 85 1.013 1.014 1.016 SE 4,8 34,0 0,0
Últims 13 mesos disponibles
06/2019 13,4 18,0 22,7 24,2 24,2 30,1 35,9 22,5 38 59 73 1.009 1.015 1.022 SSE 5,6 50,0 0,6
05/2019 11,2 14,9 21,4 20,3 21,7 26,2 32,2 21,0 45 63 74 1.006 1.015 1.025 SSE 5,0 63,0 4,0
04/2019 8,6 12,0 15,0 16,4 14,6 21,5 28,8 20,2 44 64 89 1.000 1.013 1.025 S 5,6 69,0 127,2
03/2019 4,4 8,5 13,1 14,5 13,6 21,0 28,2 23,8 37 63 88 1.011 1.023 1.031 S 3,8 52,0 26,6
02/2019 4,1 6,8 11,1 12,7 14,5 19,6 27,1 23,0 34 63 79 997 1.025 1.033 SSO 3,7 66,0 0,4
Tots els anys disponibles
Temperatura (°C)
Humitat relativa (%)
Velocitat del vent i ràfega màxima (km/h)
Direcció del vent (°)
Pressió (hPa)
Precipitació (mm)
Nota sobre les dades: s'avisa a l'usuari de la provisionalitat i no oficialitat d'aquestes dades
Logo AVAMET blanc
Web allotjada a Sollutia
Llicència de Creative CommonsLa web d'AVAMET i els seus continguts estan subjectes a una llicència de
Reconeixement - No Comercial - Compartir igual
Properes estacions: Altea - Club Nàutic d'Altea (Soci), Ares del Maestrat (Ajuntament Soci),      - - - - -      Últimes estacions: Catadau - Urb. Lloma Molina (Inforatge), Ontinyent - El Pilar (Soci), Asp - Poliesportiu (Soci) - - -